sensor_id;sensor_type;location;lat;lon;timestamp;pressure;altitude;pressure_sealevel;temperature;humidity
51849;BME280;38952;51.090;-1.832;2023-05-02T00:01:03;101021.22;;;10.19;84.50
51849;BME280;38952;51.090;-1.832;2023-05-02T00:03:30;101018.91;;;10.11;84.73
51849;BME280;38952;51.090;-1.832;2023-05-02T00:05:57;101026.50;;;10.09;84.94
51849;BME280;38952;51.090;-1.832;2023-05-02T00:08:22;101034.13;;;10.07;85.06
51849;BME280;38952;51.090;-1.832;2023-05-02T00:10:48;101019.78;;;10.00;84.87
51849;BME280;38952;51.090;-1.832;2023-05-02T00:13:13;101021.47;;;10.01;85.60
51849;BME280;38952;51.090;-1.832;2023-05-02T00:15:38;101017.56;;;9.96;85.58
51849;BME280;38952;51.090;-1.832;2023-05-02T00:18:04;101022.91;;;9.91;85.74
51849;BME280;38952;51.090;-1.832;2023-05-02T00:20:29;101013.00;;;9.85;85.88
51849;BME280;38952;51.090;-1.832;2023-05-02T00:22:55;101007.78;;;9.84;85.37
51849;BME280;38952;51.090;-1.832;2023-05-02T00:25:21;101021.69;;;9.82;85.56
51849;BME280;38952;51.090;-1.832;2023-05-02T00:27:47;101023.34;;;9.83;85.26
51849;BME280;38952;51.090;-1.832;2023-05-02T00:30:15;101017.88;;;9.83;85.27
51849;BME280;38952;51.090;-1.832;2023-05-02T00:32:41;101023.66;;;9.87;85.07
51849;BME280;38952;51.090;-1.832;2023-05-02T00:35:07;101018.38;;;9.80;85.07
51849;BME280;38952;51.090;-1.832;2023-05-02T00:37:33;101012.41;;;9.83;84.84
51849;BME280;38952;51.090;-1.832;2023-05-02T00:39:58;101026.66;;;9.85;84.66
51849;BME280;38952;51.090;-1.832;2023-05-02T00:42:23;101018.94;;;9.82;84.63
51849;BME280;38952;51.090;-1.832;2023-05-02T00:44:49;101031.78;;;9.82;84.18
51849;BME280;38952;51.090;-1.832;2023-05-02T00:47:14;101034.78;;;9.80;83.92
51849;BME280;38952;51.090;-1.832;2023-05-02T00:49:40;101028.13;;;9.76;84.39
51849;BME280;38952;51.090;-1.832;2023-05-02T00:52:05;101029.19;;;9.75;83.98
51849;BME280;38952;51.090;-1.832;2023-05-02T00:54:31;101034.84;;;9.68;84.18
51849;BME280;38952;51.090;-1.832;2023-05-02T00:56:57;101031.25;;;9.68;83.85
51849;BME280;38952;51.090;-1.832;2023-05-02T00:59:23;101036.72;;;9.68;84.05
51849;BME280;38952;51.090;-1.832;2023-05-02T01:02:02;101027.59;;;9.62;84.16
51849;BME280;38952;51.090;-1.832;2023-05-02T01:04:58;101036.63;;;9.63;83.74
51849;BME280;38952;51.090;-1.832;2023-05-02T01:10:42;101026.41;;;9.41;83.48
51849;BME280;38952;51.090;-1.832;2023-05-02T01:13:13;101025.91;;;9.44;83.92
51849;BME280;38952;51.090;-1.832;2023-05-02T01:15:42;101029.69;;;9.43;83.86
51849;BME280;38952;51.090;-1.832;2023-05-02T01:18:11;101029.00;;;9.48;84.19
51849;BME280;38952;51.090;-1.832;2023-05-02T01:20:42;101024.34;;;9.48;83.67
51849;BME280;38952;51.090;-1.832;2023-05-02T01:26:08;101044.78;;;9.46;84.00
51849;BME280;38952;51.090;-1.832;2023-05-02T01:31:20;101034.22;;;9.37;84.01
51849;BME280;38952;51.090;-1.832;2023-05-02T01:33:47;101038.28;;;9.35;84.39
51849;BME280;38952;51.090;-1.832;2023-05-02T01:36:15;101043.41;;;9.31;83.91
51849;BME280;38952;51.090;-1.832;2023-05-02T01:38:42;101040.41;;;9.33;84.49
51849;BME280;38952;51.090;-1.832;2023-05-02T01:41:10;101037.44;;;9.34;84.80
51849;BME280;38952;51.090;-1.832;2023-05-02T01:43:37;101042.31;;;9.32;84.81
51849;BME280;38952;51.090;-1.832;2023-05-02T01:46:06;101034.28;;;9.25;84.58
51849;BME280;38952;51.090;-1.832;2023-05-02T01:48:34;101030.97;;;9.23;84.64
51849;BME280;38952;51.090;-1.832;2023-05-02T01:51:01;101046.38;;;9.30;85.18
51849;BME280;38952;51.090;-1.832;2023-05-02T01:53:32;101026.69;;;9.28;84.84
51849;BME280;38952;51.090;-1.832;2023-05-02T01:56:00;101036.75;;;9.27;84.84
51849;BME280;38952;51.090;-1.832;2023-05-02T01:58:27;101036.22;;;9.13;85.17
51849;BME280;38952;51.090;-1.832;2023-05-02T02:00:55;101050.22;;;9.05;85.09
51849;BME280;38952;51.090;-1.832;2023-05-02T02:03:23;101048.38;;;8.94;85.22
51849;BME280;38952;51.090;-1.832;2023-05-02T02:05:51;101055.59;;;8.88;85.47
51849;BME280;38952;51.090;-1.832;2023-05-02T02:08:17;101059.50;;;8.80;85.41
51849;BME280;38952;51.090;-1.832;2023-05-02T02:10:45;101046.75;;;8.69;85.44
51849;BME280;38952;51.090;-1.832;2023-05-02T02:13:33;101047.66;;;8.63;85.49
51849;BME280;38952;51.090;-1.832;2023-05-02T02:16:01;101056.56;;;8.58;85.89
51849;BME280;38952;51.090;-1.832;2023-05-02T02:18:28;101052.88;;;8.52;85.93
51849;BME280;38952;51.090;-1.832;2023-05-02T02:20:58;101055.03;;;8.50;85.87
51849;BME280;38952;51.090;-1.832;2023-05-02T02:23:27;101047.16;;;8.42;86.16
51849;BME280;38952;51.090;-1.832;2023-05-02T02:25:54;101055.50;;;8.47;86.15
51849;BME280;38952;51.090;-1.832;2023-05-02T02:28:21;101060.09;;;8.47;86.46
51849;BME280;38952;51.090;-1.832;2023-05-02T02:30:46;101070.78;;;8.48;85.85
51849;BME280;38952;51.090;-1.832;2023-05-02T02:33:12;101075.66;;;8.46;86.30
51849;BME280;38952;51.090;-1.832;2023-05-02T02:35:41;101075.66;;;8.46;86.07
51849;BME280;38952;51.090;-1.832;2023-05-02T02:38:31;101066.47;;;8.41;86.69
51849;BME280;38952;51.090;-1.832;2023-05-02T02:41:08;101074.31;;;8.37;85.99
51849;BME280;38952;51.090;-1.832;2023-05-02T02:52:36;101088.28;;;8.29;86.47
51849;BME280;38952;51.090;-1.832;2023-05-02T02:55:23;101090.41;;;8.27;87.10
51849;BME280;38952;51.090;-1.832;2023-05-02T02:58:02;101081.88;;;8.35;86.84
51849;BME280;38952;51.090;-1.832;2023-05-02T03:00:32;101079.63;;;8.32;86.63
51849;BME280;38952;51.090;-1.832;2023-05-02T03:02:57;101085.53;;;8.29;86.24
51849;BME280;38952;51.090;-1.832;2023-05-02T03:05:23;101097.38;;;8.23;86.76
51849;BME280;38952;51.090;-1.832;2023-05-02T03:07:49;101103.31;;;8.19;87.10
51849;BME280;38952;51.090;-1.832;2023-05-02T03:10:15;101110.88;;;8.17;87.14
51849;BME280;38952;51.090;-1.832;2023-05-02T03:12:41;101113.00;;;8.15;86.95
51849;BME280;38952;51.090;-1.832;2023-05-02T03:17:54;101106.81;;;8.08;87.49
51849;BME280;38952;51.090;-1.832;2023-05-02T03:20:20;101109.56;;;8.08;87.18
51849;BME280;38952;51.090;-1.832;2023-05-02T03:22:45;101112.28;;;8.08;87.12
51849;BME280;38952;51.090;-1.832;2023-05-02T03:25:11;101109.41;;;8.03;87.23
51849;BME280;38952;51.090;-1.832;2023-05-02T03:27:36;101107.53;;;8.03;86.98
51849;BME280;38952;51.090;-1.832;2023-05-02T03:30:02;101103.38;;;8.01;87.10
51849;BME280;38952;51.090;-1.832;2023-05-02T03:32:27;101109.88;;;8.00;87.11
51849;BME280;38952;51.090;-1.832;2023-05-02T03:34:52;101113.53;;;7.94;87.44
51849;BME280;38952;51.090;-1.832;2023-05-02T03:37:23;101121.69;;;7.94;87.95
51849;BME280;38952;51.090;-1.832;2023-05-02T03:39:48;101110.91;;;7.87;87.32
51849;BME280;38952;51.090;-1.832;2023-05-02T03:42:13;101121.34;;;7.90;87.73
51849;BME280;38952;51.090;-1.832;2023-05-02T03:44:39;101119.75;;;7.82;87.65
51849;BME280;38952;51.090;-1.832;2023-05-02T03:47:04;101137.75;;;7.83;87.43
51849;BME280;38952;51.090;-1.832;2023-05-02T03:49:33;101120.09;;;7.74;88.03
51849;BME280;38952;51.090;-1.832;2023-05-02T03:51:58;101138.69;;;7.77;88.65
51849;BME280;38952;51.090;-1.832;2023-05-02T03:54:25;101140.19;;;7.73;88.06
51849;BME280;38952;51.090;-1.832;2023-05-02T03:56:52;101132.50;;;7.70;88.32
51849;BME280;38952;51.090;-1.832;2023-05-02T03:59:18;101134.16;;;7.71;87.78
51849;BME280;38952;51.090;-1.832;2023-05-02T04:01:44;101131.53;;;7.64;88.54
51849;BME280;38952;51.090;-1.832;2023-05-02T04:04:12;101140.03;;;7.68;88.90
51849;BME280;38952;51.090;-1.832;2023-05-02T04:06:38;101134.25;;;7.64;88.92
51849;BME280;38952;51.090;-1.832;2023-05-02T04:09:04;101139.09;;;7.62;88.60
51849;BME280;38952;51.090;-1.832;2023-05-02T04:11:29;101142.47;;;7.58;88.93
51849;BME280;38952;51.090;-1.832;2023-05-02T04:13:55;101137.66;;;7.60;88.60
51849;BME280;38952;51.090;-1.832;2023-05-02T04:16:21;101150.41;;;7.59;88.97
51849;BME280;38952;51.090;-1.832;2023-05-02T04:18:46;101152.31;;;7.59;88.98
51849;BME280;38952;51.090;-1.832;2023-05-02T04:21:12;101143.41;;;7.51;89.76
51849;BME280;38952;51.090;-1.832;2023-05-02T04:23:37;101145.66;;;7.55;89.49
51849;BME280;38952;51.090;-1.832;2023-05-02T04:26:03;101140.69;;;7.51;89.47
51849;BME280;38952;51.090;-1.832;2023-05-02T04:28:28;101142.34;;;7.53;89.99
51849;BME280;38952;51.090;-1.832;2023-05-02T04:30:55;101133.59;;;7.50;90.49
51849;BME280;38952;51.090;-1.832;2023-05-02T04:33:20;101137.03;;;7.58;90.43
51849;BME280;38952;51.090;-1.832;2023-05-02T04:35:46;101135.53;;;7.62;90.09
51849;BME280;38952;51.090;-1.832;2023-05-02T04:38:11;101148.09;;;7.63;90.00
51849;BME280;38952;51.090;-1.832;2023-05-02T04:40:37;101133.72;;;7.56;90.53
51849;BME280;38952;51.090;-1.832;2023-05-02T04:43:02;101152.72;;;7.62;90.75
51849;BME280;38952;51.090;-1.832;2023-05-02T04:45:27;101158.16;;;7.62;90.31
51849;BME280;38952;51.090;-1.832;2023-05-02T04:47:53;101144.63;;;7.56;90.58
51849;BME280;38952;51.090;-1.832;2023-05-02T04:50:18;101156.47;;;7.61;91.15
51849;BME280;38952;51.090;-1.832;2023-05-02T04:52:44;101157.31;;;7.62;91.07
51849;BME280;38952;51.090;-1.832;2023-05-02T04:55:09;101164.41;;;7.63;91.61
51849;BME280;38952;51.090;-1.832;2023-05-02T04:57:35;101163.38;;;7.64;91.83
51849;BME280;38952;51.090;-1.832;2023-05-02T05:00:00;101157.31;;;7.62;92.04
51849;BME280;38952;51.090;-1.832;2023-05-02T05:02:25;101164.41;;;7.63;91.41
51849;BME280;38952;51.090;-1.832;2023-05-02T05:04:51;101166.00;;;7.71;91.64
51849;BME280;38952;51.090;-1.832;2023-05-02T05:07:16;101159.94;;;7.68;91.77
51849;BME280;38952;51.090;-1.832;2023-05-02T05:09:42;101169.03;;;7.62;91.69
51849;BME280;38952;51.090;-1.832;2023-05-02T05:12:07;101170.31;;;7.60;91.66
51849;BME280;38952;51.090;-1.832;2023-05-02T05:14:33;101164.94;;;7.53;91.64
51849;BME280;38952;51.090;-1.832;2023-05-02T05:16:58;101184.16;;;7.58;91.16
51849;BME280;38952;51.090;-1.832;2023-05-02T05:19:24;101184.38;;;7.57;90.82
51849;BME280;38952;51.090;-1.832;2023-05-02T05:21:50;101176.22;;;7.57;91.03
51849;BME280;38952;51.090;-1.832;2023-05-02T05:24:16;101183.19;;;7.71;90.44
51849;BME280;38952;51.090;-1.832;2023-05-02T05:26:41;101184.34;;;7.94;90.48
51849;BME280;38952;51.090;-1.832;2023-05-02T05:29:07;101186.97;;;8.31;89.48
51849;BME280;38952;51.090;-1.832;2023-05-02T05:31:32;101190.53;;;8.62;88.67
51849;BME280;38952;51.090;-1.832;2023-05-02T05:33:58;101192.31;;;8.91;87.83
51849;BME280;38952;51.090;-1.832;2023-05-02T05:36:23;101196.59;;;9.11;87.16
51849;BME280;38952;51.090;-1.832;2023-05-02T05:38:49;101189.25;;;9.23;86.81
51849;BME280;38952;51.090;-1.832;2023-05-02T05:41:15;101204.91;;;9.40;86.90
51849;BME280;38952;51.090;-1.832;2023-05-02T05:43:41;101194.44;;;9.49;86.44
51849;BME280;38952;51.090;-1.832;2023-05-02T05:46:06;101202.03;;;9.58;86.09
51849;BME280;38952;51.090;-1.832;2023-05-02T05:48:32;101202.25;;;9.69;85.93
51849;BME280;38952;51.090;-1.832;2023-05-02T05:50:57;101214.56;;;9.83;85.56
51849;BME280;38952;51.090;-1.832;2023-05-02T05:53:23;101203.97;;;9.87;85.96
51849;BME280;38952;51.090;-1.832;2023-05-02T05:55:51;101213.31;;;10.03;85.19
51849;BME280;38952;51.090;-1.832;2023-05-02T05:58:16;101205.47;;;10.06;85.05
51849;BME280;38952;51.090;-1.832;2023-05-02T06:00:41;101219.28;;;10.28;85.09
51849;BME280;38952;51.090;-1.832;2023-05-02T06:03:07;101226.69;;;10.45;84.28
51849;BME280;38952;51.090;-1.832;2023-05-02T06:05:32;101225.25;;;10.54;84.53
51849;BME280;38952;51.090;-1.832;2023-05-02T06:07:58;101228.72;;;10.67;84.38
51849;BME280;38952;51.090;-1.832;2023-05-02T06:10:24;101234.38;;;10.77;84.22
51849;BME280;38952;51.090;-1.832;2023-05-02T06:12:49;101240.69;;;10.94;84.10
51849;BME280;38952;51.090;-1.832;2023-05-02T06:15:15;101241.66;;;11.05;83.22
51849;BME280;38952;51.090;-1.832;2023-05-02T06:17:41;101241.50;;;11.12;83.55
51849;BME280;38952;51.090;-1.832;2023-05-02T06:20:07;101240.59;;;11.23;83.04
51849;BME280;38952;51.090;-1.832;2023-05-02T06:22:32;101243.50;;;11.33;82.93
51849;BME280;38952;51.090;-1.832;2023-05-02T06:24:58;101249.44;;;11.47;82.32
51849;BME280;38952;51.090;-1.832;2023-05-02T06:27:24;101247.09;;;11.56;82.52
51849;BME280;38952;51.090;-1.832;2023-05-02T06:29:50;101250.22;;;11.65;81.73
51849;BME280;38952;51.090;-1.832;2023-05-02T06:32:16;101252.38;;;11.80;82.00
51849;BME280;38952;51.090;-1.832;2023-05-02T06:34:42;101251.13;;;11.93;81.61
51849;BME280;38952;51.090;-1.832;2023-05-02T06:37:07;101247.72;;;12.02;81.43
51849;BME280;38952;51.090;-1.832;2023-05-02T06:39:32;101250.28;;;12.09;80.72
51849;BME280;38952;51.090;-1.832;2023-05-02T06:41:58;101252.88;;;12.21;80.51
51849;BME280;38952;51.090;-1.832;2023-05-02T06:44:24;101256.31;;;12.33;79.94
51849;BME280;38952;51.090;-1.832;2023-05-02T06:46:49;101239.84;;;12.33;79.80
51849;BME280;38952;51.090;-1.832;2023-05-02T06:49:35;101260.91;;;12.55;79.63
51849;BME280;38952;51.090;-1.832;2023-05-02T06:52:04;101243.47;;;12.66;78.97
51849;BME280;38952;51.090;-1.832;2023-05-02T06:54:32;101249.69;;;12.84;78.44
51849;BME280;38952;51.090;-1.832;2023-05-02T06:57:02;101248.66;;;12.95;77.96
51849;BME280;38952;51.090;-1.832;2023-05-02T06:59:27;101253.72;;;13.08;77.43
51849;BME280;38952;51.090;-1.832;2023-05-02T07:01:53;101231.53;;;12.83;76.90
51849;BME280;38952;51.090;-1.832;2023-05-02T07:04:26;101252.16;;;12.85;76.76
51849;BME280;38952;51.090;-1.832;2023-05-02T07:06:51;101269.19;;;12.87;77.05
51849;BME280;38952;51.090;-1.832;2023-05-02T07:09:17;101261.09;;;12.70;76.68
51849;BME280;38952;51.090;-1.832;2023-05-02T07:11:45;101253.94;;;12.69;76.83
51849;BME280;38952;51.090;-1.832;2023-05-02T07:14:18;101246.56;;;12.75;77.22
51849;BME280;38952;51.090;-1.832;2023-05-02T07:16:44;101246.44;;;12.92;76.41
51849;BME280;38952;51.090;-1.832;2023-05-02T07:19:09;101251.38;;;12.90;75.71
51849;BME280;38952;51.090;-1.832;2023-05-02T07:21:34;101262.28;;;12.85;75.79
51849;BME280;38952;51.090;-1.832;2023-05-02T07:24:00;101261.28;;;12.91;75.82
51849;BME280;38952;51.090;-1.832;2023-05-02T07:26:26;101266.19;;;12.89;76.03
51849;BME280;38952;51.090;-1.832;2023-05-02T07:28:52;101249.06;;;12.77;76.40
51849;BME280;38952;51.090;-1.832;2023-05-02T07:31:25;101244.56;;;12.65;75.76
51849;BME280;38952;51.090;-1.832;2023-05-02T07:33:50;101249.22;;;12.65;76.56
51849;BME280;38952;51.090;-1.832;2023-05-02T07:36:16;101257.31;;;12.82;76.19
51849;BME280;38952;51.090;-1.832;2023-05-02T07:38:42;101268.63;;;13.18;76.01
51849;BME280;38952;51.090;-1.832;2023-05-02T07:41:17;101259.53;;;13.55;75.08
51849;BME280;38952;51.090;-1.832;2023-05-02T07:43:50;101266.09;;;13.96;73.39
51849;BME280;38952;51.090;-1.832;2023-05-02T07:46:16;101247.16;;;14.05;72.96
51849;BME280;38952;51.090;-1.832;2023-05-02T07:48:43;101249.38;;;14.03;72.30
51849;BME280;38952;51.090;-1.832;2023-05-02T07:51:38;101270.81;;;14.11;72.70
51849;BME280;38952;51.090;-1.832;2023-05-02T08:03:15;101254.38;;;14.27;72.02
51849;BME280;38952;51.090;-1.832;2023-05-02T08:05:41;101271.84;;;14.79;70.94
51849;BME280;38952;51.090;-1.832;2023-05-02T08:08:06;101279.28;;;15.19;70.03
51849;BME280;38952;51.090;-1.832;2023-05-02T08:10:32;101263.31;;;15.32;69.67
51849;BME280;38952;51.090;-1.832;2023-05-02T08:12:57;101279.81;;;15.37;68.56
51849;BME280;38952;51.090;-1.832;2023-05-02T08:15:22;101287.56;;;15.19;68.43
51849;BME280;38952;51.090;-1.832;2023-05-02T08:17:48;101289.47;;;14.93;68.62
51849;BME280;38952;51.090;-1.832;2023-05-02T08:20:14;101293.06;;;14.78;69.31
51849;BME280;38952;51.090;-1.832;2023-05-02T08:22:39;101301.34;;;14.83;69.53
51849;BME280;38952;51.090;-1.832;2023-05-02T08:25:05;101304.91;;;15.10;69.41
51849;BME280;38952;51.090;-1.832;2023-05-02T08:27:33;101294.72;;;15.31;68.38
51849;BME280;38952;51.090;-1.832;2023-05-02T08:29:59;101295.25;;;15.59;68.14
51849;BME280;38952;51.090;-1.832;2023-05-02T08:32:25;101294.13;;;15.65;67.47
51849;BME280;38952;51.090;-1.832;2023-05-02T08:34:56;101313.38;;;15.75;66.01
51849;BME280;38952;51.090;-1.832;2023-05-02T08:37:24;101311.19;;;15.82;65.88
51849;BME280;38952;51.090;-1.832;2023-05-02T08:39:50;101314.38;;;16.20;65.78
51849;BME280;38952;51.090;-1.832;2023-05-02T08:42:15;101316.63;;;16.68;64.42
51849;BME280;38952;51.090;-1.832;2023-05-02T08:44:41;101316.41;;;17.04;63.34
51849;BME280;38952;51.090;-1.832;2023-05-02T08:47:06;101302.25;;;17.45;62.41
51849;BME280;38952;51.090;-1.832;2023-05-02T08:49:35;101321.25;;;17.82;60.97
51849;BME280;38952;51.090;-1.832;2023-05-02T08:52:03;101316.53;;;17.82;60.29
51849;BME280;38952;51.090;-1.832;2023-05-02T08:54:29;101309.34;;;17.81;59.58
51849;BME280;38952;51.090;-1.832;2023-05-02T08:56:55;101306.53;;;17.86;59.72
51849;BME280;38952;51.090;-1.832;2023-05-02T08:59:23;101327.69;;;18.25;59.27
51849;BME280;38952;51.090;-1.832;2023-05-02T09:02:00;101329.00;;;18.52;58.40
51849;BME280;38952;51.090;-1.832;2023-05-02T09:04:30;101311.44;;;18.62;57.71
51849;BME280;38952;51.090;-1.832;2023-05-02T09:07:01;101336.41;;;18.76;56.81
51849;BME280;38952;51.090;-1.832;2023-05-02T09:09:27;101319.94;;;18.65;56.47
51849;BME280;38952;51.090;-1.832;2023-05-02T09:11:54;101324.53;;;18.56;56.24
51849;BME280;38952;51.090;-1.832;2023-05-02T09:14:23;101315.34;;;18.37;56.57
51849;BME280;38952;51.090;-1.832;2023-05-02T09:16:49;101336.56;;;18.22;56.88
51849;BME280;38952;51.090;-1.832;2023-05-02T09:19:23;101338.34;;;18.13;56.37
51849;BME280;38952;51.090;-1.832;2023-05-02T09:21:50;101325.19;;;18.05;56.79
51849;BME280;38952;51.090;-1.832;2023-05-02T09:24:18;101341.78;;;18.05;56.95
51849;BME280;38952;51.090;-1.832;2023-05-02T09:26:57;101328.75;;;18.05;57.29
51849;BME280;38952;51.090;-1.832;2023-05-02T09:29:26;101340.00;;;18.14;56.99
51849;BME280;38952;51.090;-1.832;2023-05-02T09:31:52;101347.19;;;18.15;56.71
51849;BME280;38952;51.090;-1.832;2023-05-02T09:34:18;101330.94;;;18.33;56.88
51849;BME280;38952;51.090;-1.832;2023-05-02T09:36:47;101344.41;;;18.58;56.04
51849;BME280;38952;51.090;-1.832;2023-05-02T09:39:19;101356.91;;;18.56;55.58
51849;BME280;38952;51.090;-1.832;2023-05-02T09:41:46;101364.50;;;18.50;55.47
51849;BME280;38952;51.090;-1.832;2023-05-02T09:44:14;101365.06;;;18.47;55.68
51849;BME280;38952;51.090;-1.832;2023-05-02T09:46:46;101353.84;;;18.57;55.27
51849;BME280;38952;51.090;-1.832;2023-05-02T09:49:12;101371.03;;;18.78;55.12
51849;BME280;38952;51.090;-1.832;2023-05-02T09:51:47;101374.72;;;19.12;54.54
51849;BME280;38952;51.090;-1.832;2023-05-02T09:54:14;101356.69;;;19.14;54.03
51849;BME280;38952;51.090;-1.832;2023-05-02T09:56:57;101361.94;;;18.97;54.00
51849;BME280;38952;51.090;-1.832;2023-05-02T09:59:25;101379.44;;;18.92;54.38
51849;BME280;38952;51.090;-1.832;2023-05-02T10:02:03;101395.34;;;18.87;54.32
51849;BME280;38952;51.090;-1.832;2023-05-02T10:04:30;101386.56;;;18.98;54.35
51849;BME280;38952;51.090;-1.832;2023-05-02T10:06:56;101376.75;;;19.06;54.34
51849;BME280;38952;51.090;-1.832;2023-05-02T10:09:24;101379.00;;;19.23;54.10
51849;BME280;38952;51.090;-1.832;2023-05-02T10:11:53;101351.78;;;19.25;53.29
51849;BME280;38952;51.090;-1.832;2023-05-02T10:14:22;101370.66;;;19.42;52.61
51849;BME280;38952;51.090;-1.832;2023-05-02T10:17:18;101376.25;;;19.37;53.03
51849;BME280;38952;51.090;-1.832;2023-05-02T10:20:05;101391.50;;;19.53;52.92
51849;BME280;38952;51.090;-1.832;2023-05-02T10:22:34;101378.91;;;19.61;52.41
51849;BME280;38952;51.090;-1.832;2023-05-02T10:25:05;101395.56;;;19.94;52.33
51849;BME280;38952;51.090;-1.832;2023-05-02T10:27:33;101390.72;;;20.00;51.17
51849;BME280;38952;51.090;-1.832;2023-05-02T10:29:59;101377.28;;;19.93;51.30
51849;BME280;38952;51.090;-1.832;2023-05-02T10:32:28;101379.94;;;19.98;51.28
51849;BME280;38952;51.090;-1.832;2023-05-02T10:35:01;101386.63;;;20.25;50.87
51849;BME280;38952;51.090;-1.832;2023-05-02T10:37:28;101396.38;;;20.64;50.54
51849;BME280;38952;51.090;-1.832;2023-05-02T10:39:54;101379.00;;;20.72;50.16
51849;BME280;38952;51.090;-1.832;2023-05-02T10:42:20;101379.06;;;20.95;50.21
51849;BME280;38952;51.090;-1.832;2023-05-02T10:44:56;101399.34;;;21.32;49.16
51849;BME280;38952;51.090;-1.832;2023-05-02T10:47:23;101386.97;;;21.24;48.67
51849;BME280;38952;51.090;-1.832;2023-05-02T10:52:44;101401.81;;;21.79;47.67
51849;BME280;38952;51.090;-1.832;2023-05-02T10:55:19;101402.16;;;21.86;47.88
51849;BME280;38952;51.090;-1.832;2023-05-02T11:00:27;101405.59;;;22.23;47.01
51849;BME280;38952;51.090;-1.832;2023-05-02T11:02:54;101399.22;;;22.72;46.27
51849;BME280;38952;51.090;-1.832;2023-05-02T11:05:21;101399.47;;;23.10;45.58
51849;BME280;38952;51.090;-1.832;2023-05-02T11:07:50;101399.78;;;23.35;45.10
51849;BME280;38952;51.090;-1.832;2023-05-02T11:10:43;101401.44;;;23.18;44.58
51849;BME280;38952;51.090;-1.832;2023-05-02T11:13:10;101416.97;;;23.02;44.40
51849;BME280;38952;51.090;-1.832;2023-05-02T11:18:32;101399.56;;;23.75;43.95
51849;BME280;38952;51.090;-1.832;2023-05-02T11:21:27;101412.75;;;24.61;42.00
51849;BME280;38952;51.090;-1.832;2023-05-02T11:30:08;101416.00;;;27.29;38.13
51849;BME280;38952;51.090;-1.832;2023-05-02T11:35:41;101385.28;;;27.20;37.12
51849;BME280;38952;51.090;-1.832;2023-05-02T11:38:38;101409.31;;;28.38;36.35
51849;BME280;38952;51.090;-1.832;2023-05-02T11:41:40;101383.72;;;31.71;31.03
51849;BME280;38952;51.090;-1.832;2023-05-02T11:44:08;101376.22;;;32.38;29.22
51849;BME280;38952;51.090;-1.832;2023-05-02T11:46:38;101385.34;;;35.57;27.19
51849;BME280;38952;51.090;-1.832;2023-05-02T11:49:18;101355.41;;;37.09;23.72
51849;BME280;38952;51.090;-1.832;2023-05-02T11:51:53;101362.16;;;42.14;18.31
51849;BME280;38952;51.090;-1.832;2023-05-02T11:54:47;101387.25;;;43.97;17.07
51849;BME280;38952;51.090;-1.832;2023-05-02T11:57:22;101366.75;;;44.96;17.17
51849;BME280;38952;51.090;-1.832;2023-05-02T12:00:09;101350.69;;;45.14;14.88
51849;BME280;38952;51.090;-1.832;2023-05-02T12:02:47;101361.03;;;44.32;14.03
51849;BME280;38952;51.090;-1.832;2023-05-02T12:05:22;101358.78;;;42.64;14.57
51849;BME280;38952;51.090;-1.832;2023-05-02T12:07:52;101361.03;;;44.22;14.90
51849;BME280;38952;51.090;-1.832;2023-05-02T12:10:17;101366.25;;;46.77;14.86
51849;BME280;38952;51.090;-1.832;2023-05-02T12:12:43;101388.75;;;48.97;12.66
51849;BME280;38952;51.090;-1.832;2023-05-02T12:15:26;101366.59;;;47.44;11.45
51849;BME280;38952;51.090;-1.832;2023-05-02T12:18:23;101363.75;;;44.63;13.64
51849;BME280;38952;51.090;-1.832;2023-05-02T12:21:01;101353.25;;;40.83;15.04
51849;BME280;38952;51.090;-1.832;2023-05-02T12:23:46;101352.78;;;37.21;17.34
51849;BME280;38952;51.090;-1.832;2023-05-02T12:26:25;101348.44;;;34.22;19.65
51849;BME280;38952;51.090;-1.832;2023-05-02T12:31:52;101313.66;;;30.52;23.89
51849;BME280;38952;51.090;-1.832;2023-05-02T12:35:03;101360.38;;;29.99;25.05
51849;BME280;38952;51.090;-1.832;2023-05-02T12:37:29;101340.81;;;29.21;25.59
51849;BME280;38952;51.090;-1.832;2023-05-02T12:39:55;101352.53;;;29.03;26.37
51849;BME280;38952;51.090;-1.832;2023-05-02T12:42:23;101362.97;;;29.03;26.83
51849;BME280;38952;51.090;-1.832;2023-05-02T12:44:50;101360.56;;;29.64;26.18
51849;BME280;38952;51.090;-1.832;2023-05-02T12:47:21;101355.16;;;30.24;25.23
51849;BME280;38952;51.090;-1.832;2023-05-02T12:49:50;101370.84;;;30.22;25.05
51849;BME280;38952;51.090;-1.832;2023-05-02T12:52:21;101369.69;;;29.57;25.96
51849;BME280;38952;51.090;-1.832;2023-05-02T12:54:47;101367.78;;;30.07;26.24
51849;BME280;38952;51.090;-1.832;2023-05-02T12:57:23;101368.53;;;31.87;25.38
51849;BME280;38952;51.090;-1.832;2023-05-02T12:59:51;101371.53;;;33.70;23.81
51849;BME280;38952;51.090;-1.832;2023-05-02T13:02:17;101373.72;;;38.20;21.29
51849;BME280;38952;51.090;-1.832;2023-05-02T13:04:46;101378.31;;;41.22;17.38
51849;BME280;38952;51.090;-1.832;2023-05-02T13:07:11;101383.47;;;42.39;16.16
51849;BME280;38952;51.090;-1.832;2023-05-02T13:09:36;101390.16;;;44.06;14.92
51849;BME280;38952;51.090;-1.832;2023-05-02T13:12:02;101389.66;;;42.50;16.00
51849;BME280;38952;51.090;-1.832;2023-05-02T13:14:28;101381.47;;;43.15;16.34
51849;BME280;38952;51.090;-1.832;2023-05-02T13:16:56;101376.28;;;47.26;14.42
51849;BME280;38952;51.090;-1.832;2023-05-02T13:19:22;101384.25;;;51.84;12.20
51849;BME280;38952;51.090;-1.832;2023-05-02T13:21:56;101392.13;;;52.48;10.11
51849;BME280;38952;51.090;-1.832;2023-05-02T13:24:21;101380.34;;;50.52;9.89
51849;BME280;38952;51.090;-1.832;2023-05-02T13:26:50;101380.41;;;47.05;11.25
51849;BME280;38952;51.090;-1.832;2023-05-02T13:29:15;101376.38;;;46.18;12.67
51849;BME280;38952;51.090;-1.832;2023-05-02T13:31:43;101352.94;;;43.71;14.03
51849;BME280;38952;51.090;-1.832;2023-05-02T13:34:11;101368.75;;;42.15;14.62
51849;BME280;38952;51.090;-1.832;2023-05-02T13:36:36;101357.91;;;41.20;15.32
51849;BME280;38952;51.090;-1.832;2023-05-02T13:39:08;101345.81;;;42.81;15.46
51849;BME280;38952;51.090;-1.832;2023-05-02T13:41:33;101358.63;;;44.67;13.64
51849;BME280;38952;51.090;-1.832;2023-05-02T13:44:03;101342.34;;;43.68;13.56